sensor_id;sensor_type;location;lat;lon;timestamp;P1;durP1;ratioP1;P2;durP2;ratioP2
2860;SDS011;1438;50.922;6.704;2023-09-18T00:00:24;9.97;;;7.50;;
2860;SDS011;1438;50.922;6.704;2023-09-18T00:02:49;15.20;;;9.17;;
2860;SDS011;1438;50.922;6.704;2023-09-18T00:05:15;10.20;;;7.90;;
2860;SDS011;1438;50.922;6.704;2023-09-18T00:07:44;12.10;;;8.20;;
2860;SDS011;1438;50.922;6.704;2023-09-18T00:10:10;12.80;;;8.20;;
2860;SDS011;1438;50.922;6.704;2023-09-18T00:12:36;12.20;;;7.80;;
2860;SDS011;1438;50.922;6.704;2023-09-18T00:15:02;13.87;;;8.63;;
2860;SDS011;1438;50.922;6.704;2023-09-18T00:17:29;13.73;;;7.97;;
2860;SDS011;1438;50.922;6.704;2023-09-18T00:19:55;9.53;;;7.50;;
2860;SDS011;1438;50.922;6.704;2023-09-18T00:22:20;10.53;;;7.87;;
2860;SDS011;1438;50.922;6.704;2023-09-18T00:24:46;13.20;;;9.00;;
2860;SDS011;1438;50.922;6.704;2023-09-18T00:27:12;13.93;;;8.40;;
2860;SDS011;1438;50.922;6.704;2023-09-18T00:29:38;14.23;;;8.20;;
2860;SDS011;1438;50.922;6.704;2023-09-18T00:32:04;20.40;;;8.53;;
2860;SDS011;1438;50.922;6.704;2023-09-18T00:34:33;9.20;;;8.30;;
2860;SDS011;1438;50.922;6.704;2023-09-18T00:36:59;14.03;;;8.97;;
2860;SDS011;1438;50.922;6.704;2023-09-18T00:39:25;10.53;;;7.47;;
2860;SDS011;1438;50.922;6.704;2023-09-18T00:41:53;12.07;;;8.97;;
2860;SDS011;1438;50.922;6.704;2023-09-18T00:44:19;12.00;;;8.53;;
2860;SDS011;1438;50.922;6.704;2023-09-18T00:46:46;11.67;;;8.27;;
2860;SDS011;1438;50.922;6.704;2023-09-18T00:49:13;10.87;;;8.03;;
2860;SDS011;1438;50.922;6.704;2023-09-18T00:51:39;8.60;;;7.80;;
2860;SDS011;1438;50.922;6.704;2023-09-18T00:54:05;12.87;;;9.17;;
2860;SDS011;1438;50.922;6.704;2023-09-18T00:56:32;10.53;;;8.37;;
2860;SDS011;1438;50.922;6.704;2023-09-18T00:58:59;14.30;;;9.77;;
2860;SDS011;1438;50.922;6.704;2023-09-18T01:01:25;11.57;;;8.73;;
2860;SDS011;1438;50.922;6.704;2023-09-18T01:03:50;8.77;;;7.73;;
2860;SDS011;1438;50.922;6.704;2023-09-18T01:06:18;10.43;;;7.97;;
2860;SDS011;1438;50.922;6.704;2023-09-18T01:08:46;8.93;;;7.23;;
2860;SDS011;1438;50.922;6.704;2023-09-18T01:13:51;9.63;;;8.20;;
2860;SDS011;1438;50.922;6.704;2023-09-18T01:16:34;9.70;;;7.60;;
2860;SDS011;1438;50.922;6.704;2023-09-18T01:19:09;10.30;;;8.43;;
2860;SDS011;1438;50.922;6.704;2023-09-18T01:21:34;8.13;;;7.30;;
2860;SDS011;1438;50.922;6.704;2023-09-18T01:24:00;8.00;;;7.27;;
2860;SDS011;1438;50.922;6.704;2023-09-18T01:26:26;12.50;;;7.90;;
2860;SDS011;1438;50.922;6.704;2023-09-18T01:28:51;10.43;;;8.30;;
2860;SDS011;1438;50.922;6.704;2023-09-18T01:31:17;15.00;;;8.33;;
2860;SDS011;1438;50.922;6.704;2023-09-18T01:33:43;16.30;;;8.43;;
2860;SDS011;1438;50.922;6.704;2023-09-18T01:36:12;17.40;;;8.47;;
2860;SDS011;1438;50.922;6.704;2023-09-18T01:38:39;12.07;;;8.77;;
2860;SDS011;1438;50.922;6.704;2023-09-18T01:41:05;10.50;;;8.60;;
2860;SDS011;1438;50.922;6.704;2023-09-18T01:43:31;13.47;;;9.00;;
2860;SDS011;1438;50.922;6.704;2023-09-18T01:45:57;13.47;;;9.10;;
2860;SDS011;1438;50.922;6.704;2023-09-18T01:48:22;12.17;;;9.20;;
2860;SDS011;1438;50.922;6.704;2023-09-18T01:50:48;16.30;;;9.77;;
2860;SDS011;1438;50.922;6.704;2023-09-18T01:53:13;14.70;;;9.03;;
2860;SDS011;1438;50.922;6.704;2023-09-18T01:55:39;11.40;;;9.50;;
2860;SDS011;1438;50.922;6.704;2023-09-18T01:58:06;16.30;;;9.80;;
2860;SDS011;1438;50.922;6.704;2023-09-18T02:00:31;9.30;;;8.30;;
2860;SDS011;1438;50.922;6.704;2023-09-18T02:02:57;11.47;;;8.20;;
2860;SDS011;1438;50.922;6.704;2023-09-18T02:05:23;11.50;;;9.03;;
2860;SDS011;1438;50.922;6.704;2023-09-18T02:07:48;16.57;;;9.70;;
2860;SDS011;1438;50.922;6.704;2023-09-18T02:10:14;17.77;;;10.60;;
2860;SDS011;1438;50.922;6.704;2023-09-18T02:12:40;13.80;;;9.63;;
2860;SDS011;1438;50.922;6.704;2023-09-18T02:15:06;9.93;;;8.73;;
2860;SDS011;1438;50.922;6.704;2023-09-18T02:17:32;11.90;;;8.47;;
2860;SDS011;1438;50.922;6.704;2023-09-18T02:19:58;12.63;;;7.80;;
2860;SDS011;1438;50.922;6.704;2023-09-18T02:22:25;16.50;;;9.37;;
2860;SDS011;1438;50.922;6.704;2023-09-18T02:24:51;11.50;;;8.73;;
2860;SDS011;1438;50.922;6.704;2023-09-18T02:27:17;9.90;;;7.70;;
2860;SDS011;1438;50.922;6.704;2023-09-18T02:29:43;11.40;;;8.40;;
2860;SDS011;1438;50.922;6.704;2023-09-18T02:32:09;11.03;;;7.17;;
2860;SDS011;1438;50.922;6.704;2023-09-18T02:34:35;9.77;;;7.17;;
2860;SDS011;1438;50.922;6.704;2023-09-18T02:37:00;14.13;;;7.93;;
2860;SDS011;1438;50.922;6.704;2023-09-18T02:39:26;11.27;;;8.90;;
2860;SDS011;1438;50.922;6.704;2023-09-18T02:41:51;14.40;;;8.90;;
2860;SDS011;1438;50.922;6.704;2023-09-18T02:44:17;13.23;;;7.53;;
2860;SDS011;1438;50.922;6.704;2023-09-18T02:46:42;19.87;;;7.67;;
2860;SDS011;1438;50.922;6.704;2023-09-18T02:49:08;10.30;;;7.80;;
2860;SDS011;1438;50.922;6.704;2023-09-18T02:51:34;10.10;;;7.53;;
2860;SDS011;1438;50.922;6.704;2023-09-18T02:53:59;12.40;;;6.90;;
2860;SDS011;1438;50.922;6.704;2023-09-18T02:56:25;11.10;;;6.73;;
2860;SDS011;1438;50.922;6.704;2023-09-18T02:58:51;13.30;;;7.50;;
2860;SDS011;1438;50.922;6.704;2023-09-18T03:01:16;10.93;;;7.00;;
2860;SDS011;1438;50.922;6.704;2023-09-18T03:03:42;12.03;;;7.10;;
2860;SDS011;1438;50.922;6.704;2023-09-18T03:06:08;8.07;;;7.00;;
2860;SDS011;1438;50.922;6.704;2023-09-18T03:08:33;12.03;;;6.80;;
2860;SDS011;1438;50.922;6.704;2023-09-18T03:11:00;8.13;;;7.20;;
2860;SDS011;1438;50.922;6.704;2023-09-18T03:13:26;9.37;;;6.40;;
2860;SDS011;1438;50.922;6.704;2023-09-18T03:15:53;12.50;;;6.50;;
2860;SDS011;1438;50.922;6.704;2023-09-18T03:18:18;9.40;;;7.10;;
2860;SDS011;1438;50.922;6.704;2023-09-18T03:20:44;8.37;;;6.73;;
2860;SDS011;1438;50.922;6.704;2023-09-18T03:23:10;10.00;;;6.07;;
2860;SDS011;1438;50.922;6.704;2023-09-18T03:25:36;10.67;;;6.07;;
2860;SDS011;1438;50.922;6.704;2023-09-18T03:28:02;10.83;;;7.40;;
2860;SDS011;1438;50.922;6.704;2023-09-18T03:30:28;11.10;;;6.67;;
2860;SDS011;1438;50.922;6.704;2023-09-18T03:32:54;11.47;;;7.13;;
2860;SDS011;1438;50.922;6.704;2023-09-18T03:35:20;11.40;;;6.80;;
2860;SDS011;1438;50.922;6.704;2023-09-18T03:37:46;13.43;;;6.73;;
2860;SDS011;1438;50.922;6.704;2023-09-18T03:40:12;13.17;;;6.77;;
2860;SDS011;1438;50.922;6.704;2023-09-18T03:42:38;12.83;;;6.67;;
2860;SDS011;1438;50.922;6.704;2023-09-18T03:45:07;10.70;;;6.50;;
2860;SDS011;1438;50.922;6.704;2023-09-18T03:47:34;10.10;;;6.10;;
2860;SDS011;1438;50.922;6.704;2023-09-18T03:50:01;18.53;;;6.47;;
2860;SDS011;1438;50.922;6.704;2023-09-18T03:52:27;8.30;;;6.10;;
2860;SDS011;1438;50.922;6.704;2023-09-18T03:54:53;9.33;;;5.97;;
2860;SDS011;1438;50.922;6.704;2023-09-18T03:57:18;10.50;;;5.30;;
2860;SDS011;1438;50.922;6.704;2023-09-18T03:59:44;9.33;;;5.37;;
2860;SDS011;1438;50.922;6.704;2023-09-18T04:02:09;17.40;;;5.97;;
2860;SDS011;1438;50.922;6.704;2023-09-18T04:04:35;9.87;;;5.70;;
2860;SDS011;1438;50.922;6.704;2023-09-18T04:07:05;9.53;;;5.53;;
2860;SDS011;1438;50.922;6.704;2023-09-18T04:09:31;8.90;;;5.90;;
2860;SDS011;1438;50.922;6.704;2023-09-18T04:11:56;6.80;;;5.17;;
2860;SDS011;1438;50.922;6.704;2023-09-18T04:14:22;7.70;;;5.27;;
2860;SDS011;1438;50.922;6.704;2023-09-18T04:16:48;8.20;;;5.57;;
2860;SDS011;1438;50.922;6.704;2023-09-18T04:19:13;12.93;;;5.00;;
2860;SDS011;1438;50.922;6.704;2023-09-18T04:21:39;9.13;;;5.37;;
2860;SDS011;1438;50.922;6.704;2023-09-18T04:24:04;9.37;;;5.70;;
2860;SDS011;1438;50.922;6.704;2023-09-18T04:26:30;8.60;;;5.30;;
2860;SDS011;1438;50.922;6.704;2023-09-18T04:28:56;12.10;;;5.10;;
2860;SDS011;1438;50.922;6.704;2023-09-18T04:31:22;10.07;;;4.97;;
2860;SDS011;1438;50.922;6.704;2023-09-18T04:33:48;9.63;;;5.30;;
2860;SDS011;1438;50.922;6.704;2023-09-18T04:36:13;10.90;;;5.17;;
2860;SDS011;1438;50.922;6.704;2023-09-18T04:38:39;10.33;;;5.23;;
2860;SDS011;1438;50.922;6.704;2023-09-18T04:41:05;7.70;;;3.90;;
2860;SDS011;1438;50.922;6.704;2023-09-18T04:43:33;6.17;;;4.00;;
2860;SDS011;1438;50.922;6.704;2023-09-18T04:45:59;8.40;;;4.20;;
2860;SDS011;1438;50.922;6.704;2023-09-18T04:48:25;8.43;;;5.10;;
2860;SDS011;1438;50.922;6.704;2023-09-18T04:50:51;8.40;;;4.40;;
2860;SDS011;1438;50.922;6.704;2023-09-18T04:53:17;6.60;;;4.83;;
2860;SDS011;1438;50.922;6.704;2023-09-18T04:55:42;7.80;;;4.60;;
2860;SDS011;1438;50.922;6.704;2023-09-18T04:58:08;11.33;;;4.00;;
2860;SDS011;1438;50.922;6.704;2023-09-18T05:00:33;7.57;;;3.77;;
2860;SDS011;1438;50.922;6.704;2023-09-18T05:02:59;8.30;;;4.07;;
2860;SDS011;1438;50.922;6.704;2023-09-18T05:05:26;7.97;;;4.50;;
2860;SDS011;1438;50.922;6.704;2023-09-18T05:07:52;5.73;;;3.47;;
2860;SDS011;1438;50.922;6.704;2023-09-18T05:10:18;9.20;;;4.50;;
2860;SDS011;1438;50.922;6.704;2023-09-18T05:12:44;8.67;;;3.70;;
2860;SDS011;1438;50.922;6.704;2023-09-18T05:15:10;7.63;;;3.90;;
2860;SDS011;1438;50.922;6.704;2023-09-18T05:17:44;4.20;;;2.90;;
2860;SDS011;1438;50.922;6.704;2023-09-18T05:20:17;6.37;;;3.43;;
2860;SDS011;1438;50.922;6.704;2023-09-18T05:22:43;9.40;;;3.90;;
2860;SDS011;1438;50.922;6.704;2023-09-18T05:25:09;7.13;;;3.70;;
2860;SDS011;1438;50.922;6.704;2023-09-18T05:27:35;8.40;;;3.60;;
2860;SDS011;1438;50.922;6.704;2023-09-18T05:30:09;9.37;;;4.13;;
2860;SDS011;1438;50.922;6.704;2023-09-18T05:32:37;5.00;;;3.70;;
2860;SDS011;1438;50.922;6.704;2023-09-18T05:35:02;8.30;;;3.40;;
2860;SDS011;1438;50.922;6.704;2023-09-18T05:37:31;5.10;;;2.93;;
2860;SDS011;1438;50.922;6.704;2023-09-18T05:39:57;7.47;;;3.67;;
2860;SDS011;1438;50.922;6.704;2023-09-18T05:42:22;9.67;;;4.17;;
2860;SDS011;1438;50.922;6.704;2023-09-18T05:44:48;4.83;;;3.07;;
2860;SDS011;1438;50.922;6.704;2023-09-18T05:47:14;5.33;;;3.30;;
2860;SDS011;1438;50.922;6.704;2023-09-18T05:49:39;5.47;;;3.10;;
2860;SDS011;1438;50.922;6.704;2023-09-18T05:52:05;6.80;;;3.30;;
2860;SDS011;1438;50.922;6.704;2023-09-18T05:54:30;7.90;;;3.17;;
2860;SDS011;1438;50.922;6.704;2023-09-18T05:56:56;6.10;;;2.90;;
2860;SDS011;1438;50.922;6.704;2023-09-18T05:59:21;5.27;;;2.37;;
2860;SDS011;1438;50.922;6.704;2023-09-18T06:01:47;3.30;;;2.53;;
2860;SDS011;1438;50.922;6.704;2023-09-18T06:04:14;5.77;;;2.40;;
2860;SDS011;1438;50.922;6.704;2023-09-18T06:06:41;4.53;;;2.43;;
2860;SDS011;1438;50.922;6.704;2023-09-18T06:09:07;2.73;;;2.17;;
2860;SDS011;1438;50.922;6.704;2023-09-18T06:11:33;5.13;;;2.40;;
2860;SDS011;1438;50.922;6.704;2023-09-18T06:13:58;4.13;;;2.17;;
2860;SDS011;1438;50.922;6.704;2023-09-18T06:16:24;2.43;;;2.10;;
2860;SDS011;1438;50.922;6.704;2023-09-18T06:18:50;7.33;;;2.73;;
2860;SDS011;1438;50.922;6.704;2023-09-18T06:21:15;6.13;;;2.10;;
2860;SDS011;1438;50.922;6.704;2023-09-18T06:23:41;3.00;;;2.10;;
2860;SDS011;1438;50.922;6.704;2023-09-18T06:26:06;5.53;;;2.13;;
2860;SDS011;1438;50.922;6.704;2023-09-18T06:28:32;3.50;;;2.10;;
2860;SDS011;1438;50.922;6.704;2023-09-18T06:30:57;6.37;;;2.57;;
2860;SDS011;1438;50.922;6.704;2023-09-18T06:33:23;5.43;;;1.93;;
2860;SDS011;1438;50.922;6.704;2023-09-18T06:35:49;3.27;;;2.10;;
2860;SDS011;1438;50.922;6.704;2023-09-18T06:38:16;2.80;;;2.00;;
2860;SDS011;1438;50.922;6.704;2023-09-18T06:40:42;5.97;;;1.70;;
2860;SDS011;1438;50.922;6.704;2023-09-18T06:43:07;3.97;;;1.87;;
2860;SDS011;1438;50.922;6.704;2023-09-18T06:45:33;3.93;;;1.47;;
2860;SDS011;1438;50.922;6.704;2023-09-18T06:47:59;2.17;;;1.63;;
2860;SDS011;1438;50.922;6.704;2023-09-18T06:50:27;3.63;;;1.60;;
2860;SDS011;1438;50.922;6.704;2023-09-18T06:52:53;3.03;;;1.47;;
2860;SDS011;1438;50.922;6.704;2023-09-18T06:55:18;2.90;;;1.40;;
2860;SDS011;1438;50.922;6.704;2023-09-18T06:57:44;3.80;;;1.57;;
2860;SDS011;1438;50.922;6.704;2023-09-18T07:00:09;3.03;;;1.40;;
2860;SDS011;1438;50.922;6.704;2023-09-18T07:02:35;2.17;;;1.10;;
2860;SDS011;1438;50.922;6.704;2023-09-18T07:05:01;4.30;;;1.60;;
2860;SDS011;1438;50.922;6.704;2023-09-18T07:07:27;5.50;;;1.57;;
2860;SDS011;1438;50.922;6.704;2023-09-18T07:09:53;2.87;;;1.50;;
2860;SDS011;1438;50.922;6.704;2023-09-18T07:12:19;2.93;;;1.50;;
2860;SDS011;1438;50.922;6.704;2023-09-18T07:14:47;3.50;;;1.60;;
2860;SDS011;1438;50.922;6.704;2023-09-18T07:17:13;2.70;;;1.80;;
2860;SDS011;1438;50.922;6.704;2023-09-18T07:19:38;3.67;;;1.20;;
2860;SDS011;1438;50.922;6.704;2023-09-18T07:22:04;2.57;;;1.33;;
2860;SDS011;1438;50.922;6.704;2023-09-18T07:24:30;4.40;;;1.43;;
2860;SDS011;1438;50.922;6.704;2023-09-18T07:26:55;3.17;;;1.47;;
2860;SDS011;1438;50.922;6.704;2023-09-18T07:29:23;4.03;;;1.30;;
2860;SDS011;1438;50.922;6.704;2023-09-18T07:31:50;3.50;;;1.60;;
2860;SDS011;1438;50.922;6.704;2023-09-18T07:34:16;4.63;;;1.60;;
2860;SDS011;1438;50.922;6.704;2023-09-18T07:36:42;5.10;;;1.40;;
2860;SDS011;1438;50.922;6.704;2023-09-18T07:39:09;2.43;;;1.30;;
2860;SDS011;1438;50.922;6.704;2023-09-18T07:41:36;3.20;;;1.50;;
2860;SDS011;1438;50.922;6.704;2023-09-18T07:44:02;2.60;;;1.50;;
2860;SDS011;1438;50.922;6.704;2023-09-18T07:46:28;4.70;;;2.13;;
2860;SDS011;1438;50.922;6.704;2023-09-18T07:48:54;4.87;;;1.47;;
2860;SDS011;1438;50.922;6.704;2023-09-18T07:51:19;3.10;;;1.50;;
2860;SDS011;1438;50.922;6.704;2023-09-18T07:53:45;3.23;;;1.37;;
2860;SDS011;1438;50.922;6.704;2023-09-18T07:56:11;4.17;;;1.23;;
2860;SDS011;1438;50.922;6.704;2023-09-18T07:58:37;2.20;;;1.20;;
2860;SDS011;1438;50.922;6.704;2023-09-18T08:01:03;3.03;;;1.50;;
2860;SDS011;1438;50.922;6.704;2023-09-18T08:03:35;2.47;;;1.40;;
2860;SDS011;1438;50.922;6.704;2023-09-18T08:06:01;1.50;;;1.10;;
2860;SDS011;1438;50.922;6.704;2023-09-18T08:08:26;3.33;;;1.17;;
2860;SDS011;1438;50.922;6.704;2023-09-18T08:10:52;2.63;;;1.50;;
2860;SDS011;1438;50.922;6.704;2023-09-18T08:13:18;4.60;;;1.50;;
2860;SDS011;1438;50.922;6.704;2023-09-18T08:15:48;4.47;;;1.67;;
2860;SDS011;1438;50.922;6.704;2023-09-18T08:18:13;5.73;;;1.40;;
2860;SDS011;1438;50.922;6.704;2023-09-18T08:20:42;3.30;;;1.50;;
2860;SDS011;1438;50.922;6.704;2023-09-18T08:23:09;1.93;;;1.20;;
2860;SDS011;1438;50.922;6.704;2023-09-18T08:25:35;5.07;;;2.00;;
2860;SDS011;1438;50.922;6.704;2023-09-18T08:28:01;2.13;;;1.07;;
2860;SDS011;1438;50.922;6.704;2023-09-18T08:30:28;1.77;;;1.63;;
2860;SDS011;1438;50.922;6.704;2023-09-18T08:32:54;2.63;;;1.57;;
2860;SDS011;1438;50.922;6.704;2023-09-18T08:35:19;2.30;;;1.53;;
2860;SDS011;1438;50.922;6.704;2023-09-18T08:37:46;1.77;;;1.50;;
2860;SDS011;1438;50.922;6.704;2023-09-18T08:40:12;2.23;;;1.40;;
2860;SDS011;1438;50.922;6.704;2023-09-18T08:42:39;2.70;;;1.30;;
2860;SDS011;1438;50.922;6.704;2023-09-18T08:45:10;2.13;;;1.40;;
2860;SDS011;1438;50.922;6.704;2023-09-18T08:47:46;9.80;;;2.33;;
2860;SDS011;1438;50.922;6.704;2023-09-18T08:50:12;2.53;;;1.30;;
2860;SDS011;1438;50.922;6.704;2023-09-18T08:52:39;3.00;;;1.57;;
2860;SDS011;1438;50.922;6.704;2023-09-18T08:55:06;2.50;;;1.20;;
2860;SDS011;1438;50.922;6.704;2023-09-18T08:57:32;2.10;;;1.30;;
2860;SDS011;1438;50.922;6.704;2023-09-18T09:00:00;2.50;;;1.23;;
2860;SDS011;1438;50.922;6.704;2023-09-18T09:02:31;2.17;;;1.43;;
2860;SDS011;1438;50.922;6.704;2023-09-18T09:05:01;2.00;;;1.37;;
2860;SDS011;1438;50.922;6.704;2023-09-18T09:07:26;3.03;;;1.90;;
2860;SDS011;1438;50.922;6.704;2023-09-18T09:09:56;3.57;;;1.50;;
2860;SDS011;1438;50.922;6.704;2023-09-18T09:15:15;2.60;;;1.67;;
2860;SDS011;1438;50.922;6.704;2023-09-18T09:17:44;3.00;;;1.17;;
2860;SDS011;1438;50.922;6.704;2023-09-18T09:20:14;3.77;;;1.20;;
2860;SDS011;1438;50.922;6.704;2023-09-18T09:22:40;8.30;;;3.20;;
2860;SDS011;1438;50.922;6.704;2023-09-18T09:25:22;5.53;;;1.70;;
2860;SDS011;1438;50.922;6.704;2023-09-18T09:27:51;5.50;;;1.80;;
2860;SDS011;1438;50.922;6.704;2023-09-18T09:30:21;2.47;;;1.30;;
2860;SDS011;1438;50.922;6.704;2023-09-18T09:32:52;3.17;;;1.50;;
2860;SDS011;1438;50.922;6.704;2023-09-18T09:35:52;4.73;;;1.40;;
2860;SDS011;1438;50.922;6.704;2023-09-18T09:38:11;3.40;;;1.40;;
2860;SDS011;1438;50.922;6.704;2023-09-18T09:40:41;1.47;;;1.10;;
2860;SDS011;1438;50.922;6.704;2023-09-18T09:43:09;5.20;;;1.30;;
2860;SDS011;1438;50.922;6.704;2023-09-18T09:45:38;3.47;;;1.50;;
2860;SDS011;1438;50.922;6.704;2023-09-18T09:48:05;1.90;;;1.60;;
2860;SDS011;1438;50.922;6.704;2023-09-18T09:50:32;2.50;;;1.63;;
2860;SDS011;1438;50.922;6.704;2023-09-18T09:52:59;3.13;;;1.83;;
2860;SDS011;1438;50.922;6.704;2023-09-18T09:55:26;4.23;;;1.87;;
2860;SDS011;1438;50.922;6.704;2023-09-18T09:57:57;2.97;;;1.40;;
2860;SDS011;1438;50.922;6.704;2023-09-18T10:00:25;3.63;;;1.50;;
2860;SDS011;1438;50.922;6.704;2023-09-18T10:03:00;3.00;;;1.97;;
2860;SDS011;1438;50.922;6.704;2023-09-18T10:05:34;2.07;;;1.40;;
2860;SDS011;1438;50.922;6.704;2023-09-18T10:08:02;2.23;;;1.27;;
2860;SDS011;1438;50.922;6.704;2023-09-18T10:10:36;2.30;;;1.30;;
2860;SDS011;1438;50.922;6.704;2023-09-18T10:13:09;2.10;;;1.13;;
2860;SDS011;1438;50.922;6.704;2023-09-18T10:15:37;1.93;;;0.93;;
2860;SDS011;1438;50.922;6.704;2023-09-18T10:18:07;1.37;;;0.97;;
2860;SDS011;1438;50.922;6.704;2023-09-18T10:20:42;3.57;;;1.50;;
2860;SDS011;1438;50.922;6.704;2023-09-18T10:23:15;2.90;;;0.93;;
2860;SDS011;1438;50.922;6.704;2023-09-18T10:26:05;2.40;;;1.20;;
2860;SDS011;1438;50.922;6.704;2023-09-18T10:28:34;2.13;;;1.10;;
2860;SDS011;1438;50.922;6.704;2023-09-18T10:31:01;1.67;;;1.10;;
2860;SDS011;1438;50.922;6.704;2023-09-18T10:33:28;1.27;;;1.00;;
2860;SDS011;1438;50.922;6.704;2023-09-18T10:35:55;3.43;;;1.33;;
2860;SDS011;1438;50.922;6.704;2023-09-18T10:38:22;1.30;;;1.20;;
2860;SDS011;1438;50.922;6.704;2023-09-18T10:40:50;2.50;;;1.33;;
2860;SDS011;1438;50.922;6.704;2023-09-18T10:43:17;1.83;;;1.20;;
2860;SDS011;1438;50.922;6.704;2023-09-18T10:45:43;1.73;;;0.87;;
2860;SDS011;1438;50.922;6.704;2023-09-18T10:48:09;3.23;;;1.23;;
2860;SDS011;1438;50.922;6.704;2023-09-18T10:50:38;1.10;;;0.90;;
2860;SDS011;1438;50.922;6.704;2023-09-18T10:53:05;2.20;;;1.27;;
2860;SDS011;1438;50.922;6.704;2023-09-18T10:55:31;3.53;;;1.10;;
2860;SDS011;1438;50.922;6.704;2023-09-18T10:57:59;3.80;;;1.57;;
2860;SDS011;1438;50.922;6.704;2023-09-18T11:00:25;1.93;;;1.20;;
2860;SDS011;1438;50.922;6.704;2023-09-18T11:02:52;2.17;;;1.37;;
2860;SDS011;1438;50.922;6.704;2023-09-18T11:05:34;3.83;;;1.10;;
2860;SDS011;1438;50.922;6.704;2023-09-18T11:11:01;3.10;;;1.30;;
2860;SDS011;1438;50.922;6.704;2023-09-18T11:13:30;3.10;;;1.10;;
2860;SDS011;1438;50.922;6.704;2023-09-18T11:16:02;1.93;;;1.00;;
2860;SDS011;1438;50.922;6.704;2023-09-18T11:21:24;2.10;;;1.23;;
2860;SDS011;1438;50.922;6.704;2023-09-18T11:26:43;1.67;;;1.50;;
2860;SDS011;1438;50.922;6.704;2023-09-18T11:29:14;2.67;;;1.43;;
2860;SDS011;1438;50.922;6.704;2023-09-18T11:31:47;1.40;;;1.07;;
2860;SDS011;1438;50.922;6.704;2023-09-18T11:34:28;1.53;;;1.40;;
2860;SDS011;1438;50.922;6.704;2023-09-18T11:37:02;4.00;;;1.60;;
2860;SDS011;1438;50.922;6.704;2023-09-18T11:39:47;2.07;;;1.10;;
2860;SDS011;1438;50.922;6.704;2023-09-18T11:42:13;1.60;;;1.37;;
2860;SDS011;1438;50.922;6.704;2023-09-18T11:44:44;2.90;;;1.70;;
2860;SDS011;1438;50.922;6.704;2023-09-18T11:47:19;1.30;;;1.20;;
2860;SDS011;1438;50.922;6.704;2023-09-18T11:52:16;1.40;;;1.30;;
2860;SDS011;1438;50.922;6.704;2023-09-18T11:54:43;4.03;;;1.70;;
2860;SDS011;1438;50.922;6.704;2023-09-18T11:57:14;1.30;;;1.20;;
2860;SDS011;1438;50.922;6.704;2023-09-18T11:59:41;3.10;;;1.60;;
2860;SDS011;1438;50.922;6.704;2023-09-18T12:02:17;3.27;;;1.50;;
2860;SDS011;1438;50.922;6.704;2023-09-18T12:05:16;2.63;;;1.90;;
2860;SDS011;1438;50.922;6.704;2023-09-18T12:07:44;1.33;;;1.10;;
2860;SDS011;1438;50.922;6.704;2023-09-18T12:10:20;5.00;;;1.60;;
2860;SDS011;1438;50.922;6.704;2023-09-18T12:12:46;2.13;;;1.40;;
2860;SDS011;1438;50.922;6.704;2023-09-18T12:15:20;1.90;;;1.70;;
2860;SDS011;1438;50.922;6.704;2023-09-18T12:17:47;2.70;;;1.50;;
2860;SDS011;1438;50.922;6.704;2023-09-18T12:20:17;3.73;;;1.40;;
2860;SDS011;1438;50.922;6.704;2023-09-18T12:22:46;2.13;;;1.40;;
2860;SDS011;1438;50.922;6.704;2023-09-18T12:25:16;3.20;;;1.53;;
2860;SDS011;1438;50.922;6.704;2023-09-18T12:27:44;3.10;;;1.30;;
2860;SDS011;1438;50.922;6.704;2023-09-18T12:30:11;2.33;;;1.30;;
2860;SDS011;1438;50.922;6.704;2023-09-18T12:32:39;2.13;;;1.50;;
2860;SDS011;1438;50.922;6.704;2023-09-18T12:35:05;1.50;;;1.30;;
2860;SDS011;1438;50.922;6.704;2023-09-18T12:37:32;1.50;;;1.40;;
2860;SDS011;1438;50.922;6.704;2023-09-18T12:40:05;3.53;;;1.57;;
2860;SDS011;1438;50.922;6.704;2023-09-18T12:42:44;2.63;;;1.30;;
2860;SDS011;1438;50.922;6.704;2023-09-18T12:45:11;1.70;;;1.30;;
2860;SDS011;1438;50.922;6.704;2023-09-18T12:47:37;2.63;;;1.57;;
2860;SDS011;1438;50.922;6.704;2023-09-18T12:50:07;2.97;;;1.50;;
2860;SDS011;1438;50.922;6.704;2023-09-18T12:52:35;2.53;;;1.30;;
2860;SDS011;1438;50.922;6.704;2023-09-18T12:55:01;2.13;;;1.47;;
2860;SDS011;1438;50.922;6.704;2023-09-18T12:57:31;1.60;;;1.40;;
2860;SDS011;1438;50.922;6.704;2023-09-18T12:59:58;1.80;;;1.40;;
2860;SDS011;1438;50.922;6.704;2023-09-18T13:02:24;5.20;;;1.30;;
2860;SDS011;1438;50.922;6.704;2023-09-18T13:04:54;3.60;;;1.53;;
2860;SDS011;1438;50.922;6.704;2023-09-18T13:07:20;2.00;;;1.70;;
2860;SDS011;1438;50.922;6.704;2023-09-18T13:10:00;3.23;;;1.40;;
2860;SDS011;1438;50.922;6.704;2023-09-18T13:12:42;4.00;;;1.10;;
2860;SDS011;1438;50.922;6.704;2023-09-18T13:15:12;4.40;;;1.60;;
2860;SDS011;1438;50.922;6.704;2023-09-18T13:17:39;4.27;;;1.93;;
2860;SDS011;1438;50.922;6.704;2023-09-18T13:20:13;1.67;;;1.27;;
2860;SDS011;1438;50.922;6.704;2023-09-18T13:22:42;4.60;;;1.23;;
2860;SDS011;1438;50.922;6.704;2023-09-18T13:25:13;1.67;;;1.53;;
2860;SDS011;1438;50.922;6.704;2023-09-18T13:27:45;4.40;;;1.40;;
2860;SDS011;1438;50.922;6.704;2023-09-18T13:30:11;1.87;;;1.10;;
2860;SDS011;1438;50.922;6.704;2023-09-18T13:32:41;1.63;;;1.50;;
2860;SDS011;1438;50.922;6.704;2023-09-18T13:35:08;2.10;;;1.63;;
2860;SDS011;1438;50.922;6.704;2023-09-18T13:37:36;2.97;;;1.33;;
2860;SDS011;1438;50.922;6.704;2023-09-18T13:40:04;2.60;;;1.77;;
2860;SDS011;1438;50.922;6.704;2023-09-18T13:42:34;3.70;;;1.40;;
2860;SDS011;1438;50.922;6.704;2023-09-18T13:45:00;1.40;;;1.13;;
2860;SDS011;1438;50.922;6.704;2023-09-18T13:47:27;1.80;;;1.40;;
2860;SDS011;1438;50.922;6.704;2023-09-18T13:49:53;1.60;;;1.40;;
2860;SDS011;1438;50.922;6.704;2023-09-18T13:52:22;5.10;;;1.43;;
2860;SDS011;1438;50.922;6.704;2023-09-18T13:54:49;2.50;;;1.77;;
2860;SDS011;1438;50.922;6.704;2023-09-18T13:57:17;3.93;;;1.50;;
2860;SDS011;1438;50.922;6.704;2023-09-18T13:59:44;3.87;;;1.30;;
2860;SDS011;1438;50.922;6.704;2023-09-18T14:02:10;2.17;;;1.47;;
2860;SDS011;1438;50.922;6.704;2023-09-18T14:04:36;2.40;;;1.47;;
2860;SDS011;1438;50.922;6.704;2023-09-18T14:07:02;1.63;;;1.30;;
2860;SDS011;1438;50.922;6.704;2023-09-18T14:09:28;2.17;;;1.37;;
2860;SDS011;1438;50.922;6.704;2023-09-18T14:11:54;2.00;;;1.27;;
2860;SDS011;1438;50.922;6.704;2023-09-18T14:14:21;2.30;;;1.53;;
2860;SDS011;1438;50.922;6.704;2023-09-18T14:16:47;2.23;;;1.50;;
2860;SDS011;1438;50.922;6.704;2023-09-18T14:19:12;2.37;;;1.20;;
2860;SDS011;1438;50.922;6.704;2023-09-18T14:21:38;1.60;;;1.23;;
2860;SDS011;1438;50.922;6.704;2023-09-18T14:24:05;1.40;;;1.20;;
2860;SDS011;1438;50.922;6.704;2023-09-18T14:26:30;2.00;;;1.30;;
2860;SDS011;1438;50.922;6.704;2023-09-18T14:28:56;2.73;;;1.63;;
2860;SDS011;1438;50.922;6.704;2023-09-18T14:31:22;2.27;;;1.33;;
2860;SDS011;1438;50.922;6.704;2023-09-18T14:33:47;3.27;;;1.73;;
2860;SDS011;1438;50.922;6.704;2023-09-18T14:36:13;2.43;;;1.30;;
2860;SDS011;1438;50.922;6.704;2023-09-18T14:38:39;7.93;;;1.90;;
2860;SDS011;1438;50.922;6.704;2023-09-18T14:41:05;4.40;;;1.53;;
2860;SDS011;1438;50.922;6.704;2023-09-18T14:43:32;1.53;;;1.33;;
2860;SDS011;1438;50.922;6.704;2023-09-18T14:45:57;1.80;;;1.50;;
2860;SDS011;1438;50.922;6.704;2023-09-18T14:48:23;2.90;;;1.53;;
2860;SDS011;1438;50.922;6.704;2023-09-18T14:50:55;3.93;;;1.67;;
2860;SDS011;1438;50.922;6.704;2023-09-18T14:53:22;3.47;;;1.40;;
2860;SDS011;1438;50.922;6.704;2023-09-18T14:55:48;1.83;;;1.10;;
2860;SDS011;1438;50.922;6.704;2023-09-18T14:58:14;1.63;;;1.20;;
2860;SDS011;1438;50.922;6.704;2023-09-18T15:00:39;2.30;;;1.50;;
2860;SDS011;1438;50.922;6.704;2023-09-18T15:03:05;2.63;;;1.80;;
2860;SDS011;1438;50.922;6.704;2023-09-18T15:05:30;1.40;;;1.30;;
2860;SDS011;1438;50.922;6.704;2023-09-18T15:07:56;2.57;;;1.47;;
2860;SDS011;1438;50.922;6.704;2023-09-18T15:10:22;3.40;;;1.50;;
2860;SDS011;1438;50.922;6.704;2023-09-18T15:12:47;3.60;;;1.70;;
2860;SDS011;1438;50.922;6.704;2023-09-18T15:15:13;1.93;;;1.27;;
2860;SDS011;1438;50.922;6.704;2023-09-18T15:17:39;2.70;;;1.33;;
2860;SDS011;1438;50.922;6.704;2023-09-18T15:20:05;2.57;;;1.63;;
2860;SDS011;1438;50.922;6.704;2023-09-18T15:22:31;2.47;;;1.57;;
2860;SDS011;1438;50.922;6.704;2023-09-18T15:24:57;2.90;;;1.57;;
2860;SDS011;1438;50.922;6.704;2023-09-18T15:27:22;3.70;;;1.87;;
2860;SDS011;1438;50.922;6.704;2023-09-18T15:29:48;2.50;;;1.20;;